• Join FlightAware (Why Join?)
  • Login
  • US Flag 
09:28PM EDT


 

Airport Tracker/Info


-or-


 

Live Flight TrackerFlight Track Log ✈ SWA407 ✈ 08-Apr-2013 ✈ KBNA - KTPA

Flight Track Log - Related Links

Times and Time Zones

All times are in EDT time to prevent confusion due to time zone crossing. See the SWA407 flight status page for this flight to view local times or setup timezone preferences in your user account.

Time Position Orientation Groundspeed Altitude Reporting Facility
EDT Latitude Longitude Course Direction KTS MPH feet Rate Location/Type
01:16PM 36.1000 -86.6833 162° South 153 176 1,300  Level Nashville TRACON
01:17PM 36.0167 -86.6500 162° South 231 266 4,600 2,640 Climbing Nashville TRACON
01:19PM 35.8797 -86.5678 154° Southeast 287 330 10,900 2,820 Climbing Memphis Center
01:20PM 35.7967 -86.5128 152° Southeast 313 360 13,400 2,640 Climbing Memphis Center
01:21PM 35.7053 -86.4583 154° Southeast 349 402 16,200 2,640 Climbing Memphis Center
01:22PM 35.6064 -86.4350 169° South 364 419 18,700 6,540 Climbing Memphis Center
01:24PM 35.3706 -86.3794 169° South 401 461 37,000 2,160 Climbing Atlanta Center
01:25PM 35.2569 -86.3203 157° South 424 488 25,700 -4,740 Descending Atlanta Center
01:26PM 35.1453 -86.2614 157° South 431 496 27,500 1,740 Climbing Atlanta Center
01:27PM 35.0225 -86.2506 176° South 428 493 29,200 1,500 Climbing Atlanta Center
01:28PM 34.8975 -86.2394 176° South 447 514 30,500 1,380 Climbing Atlanta Center
01:29PM 34.7703 -86.2261 175° South 452 520 32,000 1,620 Climbing Atlanta Center
01:30PM 34.6461 -86.1747 161° South 460 529 33,800 1,620 Climbing Atlanta Center
01:31PM 34.5239 -86.1214 160° South 466 536 35,300 1,440 Climbing Atlanta Center
01:32PM 34.4017 -86.0628 158° South 471 542 36,700 840 Climbing Atlanta Center
01:33PM 34.2817 -86.0072 159° South 471 542 37,000 120 Climbing Atlanta Center
01:34PM 34.1739 -85.9594 160° South 466 536 37,000  Level Atlanta Center
01:35PM 34.0556 -85.9042 159° South 466 536 37,000  Level Atlanta Center
01:36PM 33.9333 -85.8489 159° South 466 536 37,000  Level Atlanta Center
01:37PM 33.8025 -85.7961 161° South 466 536 37,000  Level Atlanta Center
01:38PM 33.6803 -85.7414 160° South 461 531 37,000  Level Atlanta Center
01:39PM 33.5600 -85.6842 158° South 461 531 37,000  Level Atlanta Center
01:40PM 33.4375 -85.6294 160° South 466 536 37,000  Level Atlanta Center
01:41PM 33.3153 -85.5675 157° South 471 542 37,000  Level Atlanta Center
01:42PM 33.1967 -85.5158 160° South 471 542 37,000  Level Atlanta Center
01:43PM 33.0722 -85.4667 162° South 471 542 37,000  Level Atlanta Center
01:44PM 32.9539 -85.4078 157° South 464 534 37,000  Level Atlanta Center
01:45PM 32.8375 -85.3589 161° South 462 532 37,000  Level Atlanta Center
01:46PM 32.7128 -85.3028 159° South 467 537 37,000  Level Atlanta Center
01:47PM 32.5922 -85.2494 160° South 467 537 37,000  Level Atlanta Center
01:48PM 32.4717 -85.1961 160° South 460 529 37,000  Level Atlanta Center
01:49PM 32.3511 -85.1428 160° South 465 535 37,000  Level Atlanta Center
01:50PM 32.2325 -85.0972 162° South 465 535 37,000  Level Atlanta Center
01:51PM 32.1142 -85.0419 158° South 465 535 37,000  Level Atlanta Center
01:52PM 32.0092 -84.9947 159° South 462 532 37,000  Level Jacksonville Center
01:53PM 31.8744 -84.9378 160° South 468 539 37,000  Level Jacksonville Center
01:54PM 31.7500 -84.8886 161° South 468 539 37,000  Level Jacksonville Center
01:55PM 31.6278 -84.8322 159° South 468 539 37,000  Level Jacksonville Center
01:56PM 31.5053 -84.7786 160° South 468 539 37,000  Level Jacksonville Center
01:57PM 31.3803 -84.7689 176° South 445 512 37,000  Level Jacksonville Center
01:58PM 31.2569 -84.7639 178° South 445 512 37,000  Level Jacksonville Center
01:59PM 31.1364 -84.7397 170° South 445 512 37,000  Level Jacksonville Center
02:00PM 31.0225 -84.6694 152° Southeast 445 512 37,000  Level Jacksonville Center
02:01PM 30.9086 -84.5997 152° Southeast 445 512 37,000 -60 Level Jacksonville Center
02:02PM 30.7989 -84.5250 150° Southeast 461 531 36,900  Descending Jacksonville Center
02:03PM 30.6808 -84.4553 153° Southeast 468 539 37,000  Climbing Jacksonville Center
02:04PM 30.5667 -84.3836 152° Southeast 468 539 37,000 -60 Level Jacksonville Center
02:05PM 30.4569 -84.3094 150° Southeast 468 539 36,900 -60 Descending Jacksonville Center
02:06PM 30.3408 -84.2333 150° Southeast 468 539 36,900  Level Jacksonville Center
02:07PM 30.2414 -84.1692 151° Southeast 468 539 36,900 -480 Level Jacksonville Center
02:08PM 30.1272 -84.0958 151° Southeast 462 532 36,000 -960 Descending Jacksonville Center
02:09PM 30.0131 -84.0225 151° Southeast 467 537 35,000 -960 Descending Jacksonville Center
02:10PM 29.9008 -83.9467 150° Southeast 467 537 34,100 -960 Descending Jacksonville Center
02:11PM 29.7889 -83.8761 151° Southeast 467 537 33,100 -1,020 Descending Jacksonville Center
02:12PM 29.6767 -83.8033 151° Southeast 467 537 32,100 -1,080 Descending Jacksonville Center
02:13PM 29.5664 -83.7356 152° Southeast 456 525 31,000 -1,080 Descending Jacksonville Center
02:14PM 29.4625 -83.6653 149° Southeast 446 513 30,000 -1,020 Descending Jacksonville Center
02:15PM 29.3564 -83.5978 151° Southeast 441 507 29,000 -1,200 Descending Jacksonville Center
02:16PM 29.2544 -83.5328 151° Southeast 435 501 27,600 -1,140 Descending Jacksonville Center
02:17PM 29.1567 -83.4681 150° Southeast 423 487 26,800 -900 Descending Jacksonville Center
02:18PM 29.0567 -83.4081 152° Southeast 410 472 25,800 -1,440 Descending Jacksonville Center
02:19PM 28.9631 -83.3458 150° Southeast 410 472 24,000 -1,860 Descending Jacksonville Center
02:20PM 28.8672 -83.2861 151° Southeast 400 460 22,100 -1,920 Descending Jacksonville Center
02:21PM 28.7756 -83.2289 151° Southeast 389 448 20,200 -1,920 Descending Jacksonville Center
02:23PM 28.6167 -83.1333 152° Southeast 361 415 16,900 -1,920 Descending Tampa TRACON
02:24PM 28.5333 -83.0667 145° Southeast 354 407 15,100 -1,980 Descending Tampa TRACON
02:25PM 28.4333 -83.0167 156° South 352 405 13,000 -1,980 Descending Tampa TRACON
02:26PM 28.3500 -82.9667 152° Southeast 346 398 11,200 -1,560 Descending Tampa TRACON
02:27PM 28.2833 -82.9167 147° Southeast 325 374 10,100 -1,200 Descending Tampa TRACON
02:28PM 28.2667 -82.8167 101° East 277 319 8,800 -1,380 Descending Tampa TRACON
02:29PM 28.2833 -82.7333 77° East 278 320 7,300 -1,500 Descending Tampa TRACON
02:30PM 28.2833 -82.6667 90° East 268 308 6,000 -900 Descending Tampa TRACON
02:31PM 28.2667 -82.5833 103° East 222 255 5,600 -840 Descending Tampa TRACON
02:32PM 28.2333 -82.5333 127° Southeast 205 236 4,400 -960 Descending Tampa TRACON
02:33PM 28.1833 -82.5167 164° South 187 215 3,700 -900 Descending Tampa TRACON
02:34PM 28.1333 -82.5167 180° South 185 213 2,700 -960 Descending Tampa TRACON
02:35PM 28.0833 -82.5333 196° South 180 207 1,800 -840 Descending Tampa TRACON
02:36PM 28.0333 -82.5333 180° South 151 174 1,100 -780 Descending Tampa TRACON
02:38PM 27.9755 -82.5332 161° South  Level Estimated
02:45PM 27.9755 -82.5332 161° South  Level Estimated
02:46PM 27.9755 -82.5332 161° South  Level Estimated